createdAt,value
2022-10-19T00:00:10.536Z,20.02
2022-10-19T00:01:10.528Z,20.00
2022-10-19T00:02:10.607Z,20.02
2022-10-19T00:03:10.502Z,20.03
2022-10-19T00:04:10.491Z,20.02
2022-10-19T00:05:10.483Z,20.02
2022-10-19T00:06:10.471Z,20.02
2022-10-19T00:07:10.491Z,20.02
2022-10-19T00:08:10.450Z,20.02
2022-10-19T00:09:10.468Z,20.02
2022-10-19T00:10:10.425Z,20.00
2022-10-19T00:11:10.419Z,20.02
2022-10-19T00:12:10.406Z,20.03
2022-10-19T00:13:10.394Z,20.02
2022-10-19T00:14:10.414Z,20.03
2022-10-19T00:15:10.372Z,20.00
2022-10-19T00:16:11.510Z,20.03
2022-10-19T00:17:10.347Z,20.00
2022-10-19T00:18:10.362Z,20.02
2022-10-19T00:19:10.356Z,20.03
2022-10-19T00:20:10.314Z,20.00
2022-10-19T00:21:10.302Z,20.02
2022-10-19T00:22:13.086Z,20.02
2022-10-19T00:23:10.281Z,20.00
2022-10-19T00:24:10.303Z,20.02
2022-10-19T00:25:10.259Z,20.02
2022-10-19T00:26:10.252Z,20.02
2022-10-19T00:27:10.236Z,20.02
2022-10-19T00:28:10.225Z,20.00
2022-10-19T00:29:10.304Z,20.02
2022-10-19T00:30:10.205Z,20.00
2022-10-19T00:31:10.193Z,20.02
2022-10-19T00:32:10.184Z,20.00
2022-10-19T00:33:10.170Z,20.00
2022-10-19T00:34:10.220Z,20.00
2022-10-19T00:35:10.153Z,20.02
2022-10-19T00:36:10.141Z,20.02
2022-10-19T00:37:10.131Z,20.00
2022-10-19T00:38:10.118Z,20.00
2022-10-19T00:39:10.136Z,20.02
2022-10-19T00:40:10.097Z,20.00
2022-10-19T00:41:10.084Z,20.00
2022-10-19T00:42:10.074Z,20.00
2022-10-19T00:43:10.065Z,20.02
2022-10-19T00:44:10.090Z,20.02
2022-10-19T00:45:10.041Z,20.02
2022-10-19T00:46:10.031Z,19.99
2022-10-19T00:47:10.026Z,20.00
2022-10-19T00:48:10.009Z,20.00
2022-10-19T00:49:11.009Z,20.00
2022-10-19T00:50:10.042Z,20.00
2022-10-19T00:51:09.978Z,20.00
2022-10-19T00:52:09.966Z,20.02
2022-10-19T00:53:09.956Z,20.00
2022-10-19T00:54:09.945Z,20.02
2022-10-19T00:55:09.963Z,20.00
2022-10-19T00:56:09.923Z,20.00
2022-10-19T00:57:09.911Z,20.00
2022-10-19T00:58:09.944Z,20.02
2022-10-19T00:59:09.888Z,20.00
2022-10-19T01:00:09.934Z,20.00
2022-10-19T01:01:09.994Z,20.00
2022-10-19T01:02:09.889Z,20.00
2022-10-19T01:03:09.898Z,20.00
2022-10-19T01:04:09.844Z,20.00
2022-10-19T01:05:09.874Z,20.00
2022-10-19T01:06:09.841Z,20.00
2022-10-19T01:07:09.804Z,20.00
2022-10-19T01:08:09.794Z,20.00
2022-10-19T01:09:09.780Z,20.00
2022-10-19T01:10:09.803Z,19.99
2022-10-19T01:11:09.758Z,20.00
2022-10-19T01:12:09.748Z,20.00
2022-10-19T01:13:09.737Z,19.99
2022-10-19T01:14:09.727Z,19.99
2022-10-19T01:15:09.750Z,20.00
2022-10-19T01:16:09.709Z,20.02
2022-10-19T01:17:09.693Z,20.00
2022-10-19T01:18:09.684Z,20.00
2022-10-19T01:19:09.674Z,20.02
2022-10-19T01:20:09.679Z,20.00
2022-10-19T01:21:09.681Z,19.99
2022-10-19T01:22:09.666Z,20.00
2022-10-19T01:23:09.629Z,20.00
2022-10-19T01:24:09.621Z,19.99
2022-10-19T01:25:09.610Z,19.99
2022-10-19T01:26:09.631Z,20.00
2022-10-19T01:27:09.585Z,20.00
2022-10-19T01:28:09.578Z,20.00
2022-10-19T01:29:09.628Z,20.00
2022-10-19T01:30:09.553Z,19.99
2022-10-19T01:31:09.583Z,19.99
2022-10-19T01:32:09.535Z,20.00
2022-10-19T01:33:09.526Z,19.99
2022-10-19T01:34:09.516Z,19.99
2022-10-19T01:35:09.502Z,19.99
2022-10-19T01:36:09.491Z,19.99
2022-10-19T01:37:09.512Z,19.99
2022-10-19T01:38:09.490Z,20.00
2022-10-19T01:39:09.460Z,20.00
2022-10-19T01:40:09.446Z,20.00
2022-10-19T01:41:09.435Z,19.99
2022-10-19T01:42:09.455Z,20.00
2022-10-19T01:43:09.413Z,19.99
2022-10-19T01:44:09.403Z,20.00
2022-10-19T01:45:09.398Z,19.96
2022-10-19T01:46:09.382Z,19.96
2022-10-19T01:47:09.400Z,19.99
2022-10-19T01:48:09.359Z,19.99
2022-10-19T01:49:09.348Z,19.99
2022-10-19T01:50:09.337Z,20.00
2022-10-19T01:51:09.332Z,19.99
2022-10-19T01:52:09.359Z,20.00
2022-10-19T01:53:09.305Z,19.96
2022-10-19T01:54:09.318Z,19.99
2022-10-19T01:55:09.285Z,19.96
2022-10-19T01:56:09.273Z,19.99
2022-10-19T01:57:09.294Z,19.99
2022-10-19T01:58:09.707Z,19.99
2022-10-19T01:59:09.243Z,19.99
2022-10-19T02:00:09.229Z,19.96
2022-10-19T02:02:09.239Z,19.99
2022-10-19T02:03:09.198Z,19.99
2022-10-19T02:04:09.186Z,19.99
2022-10-19T02:05:09.179Z,19.99
2022-10-19T02:06:09.169Z,19.99
2022-10-19T02:07:09.195Z,19.96
2022-10-19T02:08:09.143Z,19.99
2022-10-19T02:09:09.135Z,20.00
2022-10-19T02:10:09.185Z,19.96
2022-10-19T02:11:09.115Z,19.99
2022-10-19T02:12:09.100Z,19.99
2022-10-19T02:13:09.118Z,19.96
2022-10-19T02:14:09.079Z,19.96
2022-10-19T02:15:09.069Z,19.99
2022-10-19T02:16:09.057Z,19.96
2022-10-19T02:17:09.048Z,19.99
2022-10-19T02:18:09.065Z,19.99
2022-10-19T02:19:09.026Z,19.99
2022-10-19T02:20:09.013Z,19.95
2022-10-19T02:21:09.007Z,19.96
2022-10-19T02:22:08.991Z,19.99
2022-10-19T02:23:09.011Z,19.96
2022-10-19T02:24:08.970Z,19.99
2022-10-19T02:25:08.959Z,19.96
2022-10-19T02:26:08.974Z,19.99
2022-10-19T02:27:08.937Z,19.95
2022-10-19T02:28:08.957Z,19.99
2022-10-19T02:29:08.917Z,19.99
2022-10-19T02:30:08.904Z,20.00
2022-10-19T02:31:08.897Z,19.96
2022-10-19T02:32:08.881Z,19.99
2022-10-19T02:33:08.899Z,19.96
2022-10-19T02:34:08.859Z,19.99
2022-10-19T02:35:08.878Z,19.99
2022-10-19T02:36:08.837Z,19.99
2022-10-19T02:37:08.829Z,19.96
2022-10-19T02:38:08.815Z,19.96
2022-10-19T02:39:08.805Z,19.99
2022-10-19T02:40:08.821Z,19.99
2022-10-19T02:41:08.784Z,19.99
2022-10-19T02:42:08.792Z,19.99
2022-10-19T02:43:08.764Z,19.96
2022-10-19T02:44:08.748Z,19.99
2022-10-19T02:45:08.769Z,19.99
2022-10-19T02:46:08.726Z,19.96
2022-10-19T02:47:08.717Z,19.96
2022-10-19T02:48:08.726Z,19.99
2022-10-19T02:49:08.699Z,19.99
2022-10-19T02:50:08.711Z,19.96
2022-10-19T02:51:08.674Z,19.96
2022-10-19T02:52:08.662Z,19.96
2022-10-19T02:53:08.651Z,19.99
2022-10-19T02:54:08.640Z,19.96
2022-10-19T02:55:08.659Z,19.96
2022-10-19T02:56:08.619Z,19.99
2022-10-19T02:57:08.609Z,19.96
2022-10-19T02:58:08.619Z,19.95
2022-10-19T02:59:08.589Z,19.96
2022-10-19T03:00:08.603Z,19.96
2022-10-19T03:01:08.594Z,19.96
2022-10-19T03:02:08.554Z,19.99
2022-10-19T03:03:08.547Z,19.96
2022-10-19T03:04:08.532Z,19.95
2022-10-19T03:05:08.552Z,19.96
2022-10-19T03:06:08.509Z,19.96
2022-10-19T03:07:08.502Z,19.95
2022-10-19T03:08:08.490Z,19.96
2022-10-19T03:09:08.481Z,19.96
2022-10-19T03:10:08.496Z,19.95
2022-10-19T03:11:08.456Z,19.96
2022-10-19T03:12:08.444Z,19.99
2022-10-19T03:13:08.436Z,19.96
2022-10-19T03:14:08.446Z,19.96
2022-10-19T03:15:08.456Z,19.96
2022-10-19T03:16:08.425Z,19.95
2022-10-19T03:17:08.396Z,19.96
2022-10-19T03:18:08.379Z,19.96
2022-10-19T03:19:08.370Z,19.96
2022-10-19T03:20:08.357Z,19.95
2022-10-19T03:21:08.405Z,19.96
2022-10-19T03:22:08.334Z,19.96
2022-10-19T03:23:08.330Z,19.95
2022-10-19T03:24:08.312Z,19.96
2022-10-19T03:25:08.302Z,19.95
2022-10-19T03:26:11.398Z,19.95
2022-10-19T03:27:08.307Z,19.96
2022-10-19T03:28:08.268Z,19.96
2022-10-19T03:29:08.261Z,19.95
2022-10-19T03:30:08.273Z,19.95
2022-10-19T03:31:08.241Z,19.95
2022-10-19T03:32:08.250Z,19.96
2022-10-19T03:33:08.216Z,19.96
2022-10-19T03:34:08.206Z,19.95
2022-10-19T03:35:08.195Z,19.95
2022-10-19T03:36:08.181Z,19.96
2022-10-19T03:37:08.197Z,19.95
2022-10-19T03:38:08.161Z,19.95
2022-10-19T03:39:08.149Z,19.95
2022-10-19T03:40:08.138Z,19.95
2022-10-19T03:41:08.127Z,19.96
2022-10-19T03:42:08.116Z,19.95
2022-10-19T03:43:08.134Z,19.96
2022-10-19T03:44:08.094Z,19.95
2022-10-19T03:45:08.086Z,19.95
2022-10-19T03:46:08.096Z,19.95
2022-10-19T03:47:08.063Z,19.96
2022-10-19T03:48:08.075Z,19.95
2022-10-19T03:49:08.042Z,19.95
2022-10-19T03:50:08.027Z,19.95
2022-10-19T03:51:08.014Z,19.95
2022-10-19T03:52:08.008Z,19.96
2022-10-19T03:53:08.035Z,19.95
2022-10-19T03:54:07.983Z,19.96
2022-10-19T03:55:07.977Z,19.95
2022-10-19T03:56:07.961Z,19.95
2022-10-19T03:57:07.953Z,19.96
2022-10-19T03:58:07.941Z,19.95
2022-10-19T03:59:07.959Z,19.95
2022-10-19T04:00:07.917Z,19.95
2022-10-19T04:01:07.969Z,19.96
2022-10-19T04:02:07.918Z,19.96
2022-10-19T04:03:07.889Z,19.96
2022-10-19T04:04:07.898Z,19.96
2022-10-19T04:05:07.865Z,19.96
2022-10-19T04:06:07.854Z,19.96
2022-10-19T04:07:07.844Z,19.95
2022-10-19T04:08:07.837Z,19.96
2022-10-19T04:09:07.846Z,19.95
2022-10-19T04:10:07.809Z,19.95
2022-10-19T04:11:07.802Z,19.95
2022-10-19T04:12:07.789Z,19.95
2022-10-19T04:13:07.784Z,19.95
2022-10-19T04:15:07.758Z,19.95
2022-10-19T04:16:07.744Z,19.95
2022-10-19T04:17:07.741Z,19.95
2022-10-19T04:18:07.745Z,19.95
2022-10-19T04:19:07.715Z,19.95
2022-10-19T04:20:07.725Z,19.95
2022-10-19T04:21:07.693Z,19.96
2022-10-19T04:22:07.678Z,19.95
2022-10-19T04:23:07.722Z,19.95
2022-10-19T04:24:07.656Z,19.95
2022-10-19T04:25:07.671Z,19.96
2022-10-19T04:26:07.634Z,19.95
2022-10-19T04:27:07.626Z,19.95
2022-10-19T04:28:07.613Z,19.95
2022-10-19T04:29:07.655Z,19.95
2022-10-19T04:30:07.628Z,19.96
2022-10-19T04:31:07.580Z,19.95
2022-10-19T04:32:07.568Z,19.94
2022-10-19T04:33:07.564Z,19.95
2022-10-19T04:34:07.588Z,19.94
2022-10-19T04:35:07.538Z,19.96
2022-10-19T04:36:07.566Z,19.95
2022-10-19T04:37:07.521Z,19.94
2022-10-19T04:38:07.504Z,19.95
2022-10-19T04:39:07.497Z,19.96
2022-10-19T04:40:11.488Z,19.95
2022-10-19T04:41:08.512Z,19.95
2022-10-19T04:42:07.460Z,19.95
2022-10-19T04:43:07.451Z,19.96
2022-10-19T04:44:07.439Z,19.95
2022-10-19T04:45:07.431Z,19.95
2022-10-19T04:46:07.417Z,19.95
2022-10-19T04:47:07.432Z,19.95
2022-10-19T04:48:07.395Z,19.96
2022-10-19T04:49:07.387Z,19.95
2022-10-19T04:50:07.396Z,19.95
2022-10-19T04:51:07.364Z,19.96
2022-10-19T04:52:07.374Z,19.95
2022-10-19T04:53:07.340Z,19.96
2022-10-19T04:54:07.329Z,19.95
2022-10-19T04:55:07.318Z,19.96
2022-10-19T04:56:07.306Z,19.95
2022-10-19T04:57:07.322Z,19.95
2022-10-19T04:58:07.285Z,19.95
2022-10-19T04:59:07.277Z,19.95
2022-10-19T05:00:07.262Z,19.94
2022-10-19T05:01:07.282Z,19.96
2022-10-19T05:02:07.263Z,19.95
2022-10-19T05:03:07.230Z,19.96
2022-10-19T05:04:07.220Z,19.95
2022-10-19T05:05:07.216Z,19.96
2022-10-19T05:06:07.222Z,19.95
2022-10-19T05:07:07.256Z,19.94
2022-10-19T05:08:07.175Z,19.96
2022-10-19T05:09:07.167Z,19.95
2022-10-19T05:10:07.157Z,19.96
2022-10-19T05:11:07.148Z,19.96
2022-10-19T05:12:07.131Z,19.96
2022-10-19T05:13:07.160Z,19.95
2022-10-19T05:14:07.110Z,19.95
2022-10-19T05:15:07.103Z,19.95
2022-10-19T05:16:07.094Z,19.95
2022-10-19T05:17:07.087Z,19.95
2022-10-19T05:18:07.067Z,19.96
2022-10-19T05:19:07.090Z,19.96
2022-10-19T05:20:07.044Z,19.95
2022-10-19T05:21:07.036Z,19.95
2022-10-19T05:22:07.145Z,19.96
2022-10-19T05:23:07.463Z,19.96
2022-10-19T05:24:07.027Z,19.96
2022-10-19T05:25:06.992Z,19.96
2022-10-19T05:26:06.980Z,19.96
2022-10-19T05:27:06.971Z,19.95
2022-10-19T05:28:06.961Z,19.99
2022-10-19T05:29:07.024Z,19.95
2022-10-19T05:30:06.937Z,19.96
2022-10-19T05:31:06.930Z,19.96
2022-10-19T05:32:06.916Z,19.96
2022-10-19T05:33:06.905Z,19.95
2022-10-19T05:35:06.884Z,19.96
2022-10-19T05:36:06.871Z,19.96
2022-10-19T05:37:06.864Z,19.95
2022-10-19T05:38:06.876Z,19.96
2022-10-19T05:39:06.839Z,19.96
2022-10-19T05:40:06.854Z,19.95
2022-10-19T05:41:06.819Z,19.96
2022-10-19T05:42:06.808Z,19.99
2022-10-19T05:43:06.799Z,19.96
2022-10-19T05:44:06.784Z,19.96
2022-10-19T05:45:06.801Z,19.96
2022-10-19T05:46:06.765Z,19.99
2022-10-19T05:47:06.752Z,19.99
2022-10-19T05:48:06.752Z,19.96
2022-10-19T05:49:06.731Z,19.96
2022-10-19T05:50:06.750Z,19.99
2022-10-19T05:51:06.709Z,19.96
2022-10-19T05:52:06.700Z,19.96
2022-10-19T05:53:06.688Z,19.99
2022-10-19T05:54:06.712Z,19.95
2022-10-19T05:55:06.701Z,19.96
2022-10-19T05:56:06.656Z,19.99
2022-10-19T05:57:06.645Z,19.99
2022-10-19T05:58:06.634Z,19.96
2022-10-19T05:59:06.624Z,20.00
2022-10-19T06:00:06.646Z,19.96
2022-10-19T06:01:06.601Z,19.96
2022-10-19T06:02:06.615Z,19.99
2022-10-19T06:03:06.582Z,19.99
2022-10-19T06:04:06.629Z,19.99
2022-10-19T06:05:06.604Z,19.99
2022-10-19T06:06:06.580Z,20.00
2022-10-19T06:07:06.537Z,19.99
2022-10-19T06:08:06.528Z,20.00
2022-10-19T06:09:06.514Z,19.99
2022-10-19T06:10:06.543Z,19.99
2022-10-19T06:11:06.516Z,20.00
2022-10-19T06:12:06.481Z,19.99
2022-10-19T06:13:06.472Z,20.00
2022-10-19T06:14:06.461Z,20.02
2022-10-19T06:15:06.451Z,20.00
2022-10-19T06:16:06.461Z,19.99
2022-10-19T06:17:06.428Z,19.99
2022-10-19T06:18:06.417Z,20.00
2022-10-19T06:19:06.422Z,20.02
2022-10-19T06:20:06.396Z,19.99
2022-10-19T06:21:06.426Z,20.02
2022-10-19T06:22:06.375Z,20.02
2022-10-19T06:23:06.363Z,20.02
2022-10-19T06:24:06.353Z,20.02
2022-10-19T06:25:06.343Z,20.00
2022-10-19T06:26:06.360Z,20.02
2022-10-19T06:27:06.344Z,20.02
2022-10-19T06:28:06.308Z,20.03
2022-10-19T06:29:06.300Z,20.03
2022-10-19T06:30:06.289Z,20.02
2022-10-19T06:31:08.544Z,20.02
2022-10-19T06:32:06.291Z,20.03
2022-10-19T06:33:06.258Z,20.03
2022-10-19T06:34:06.292Z,20.04
2022-10-19T06:35:06.232Z,20.03
2022-10-19T06:36:06.221Z,20.04
2022-10-19T06:37:06.237Z,20.03
2022-10-19T06:38:06.200Z,20.04
2022-10-19T06:39:06.190Z,20.04
2022-10-19T06:40:07.239Z,20.04
2022-10-19T06:41:06.169Z,20.04
2022-10-19T06:42:06.231Z,20.04
2022-10-19T06:43:06.147Z,20.04
2022-10-19T06:44:06.134Z,20.04
2022-10-19T06:45:06.127Z,20.06
2022-10-19T06:46:06.113Z,20.04
2022-10-19T06:47:06.106Z,20.06
2022-10-19T06:48:07.702Z,20.06
2022-10-19T06:49:06.084Z,20.06
2022-10-19T06:50:06.071Z,20.07
2022-10-19T06:51:06.470Z,20.07
2022-10-19T06:52:06.049Z,20.09
2022-10-19T06:53:06.066Z,20.09
2022-10-19T06:54:06.025Z,20.07
2022-10-19T06:55:06.014Z,20.07
2022-10-19T06:56:06.013Z,20.09
2022-10-19T06:57:05.994Z,20.06
2022-10-19T06:58:06.030Z,20.07
2022-10-19T06:59:05.969Z,20.07
2022-10-19T07:00:05.965Z,20.07
2022-10-19T07:01:05.989Z,20.07
2022-10-19T07:02:05.937Z,20.07
2022-10-19T07:03:05.967Z,20.07
2022-10-19T07:04:05.916Z,20.07
2022-10-19T07:05:07.137Z,20.09
2022-10-19T07:06:05.893Z,20.09
2022-10-19T07:07:05.882Z,20.10
2022-10-19T07:08:05.919Z,20.10
2022-10-19T07:09:05.886Z,20.10
2022-10-19T07:10:05.851Z,20.10
2022-10-19T07:11:05.841Z,20.10
2022-10-19T07:12:05.827Z,20.11
2022-10-19T07:13:05.820Z,20.11
2022-10-19T07:14:05.861Z,20.11
2022-10-19T07:15:05.797Z,20.10
2022-10-19T07:16:05.785Z,20.13
2022-10-19T07:17:05.778Z,20.14
2022-10-19T07:18:05.764Z,20.14
2022-10-19T07:19:05.774Z,20.14
2022-10-19T07:20:05.739Z,20.16
2022-10-19T07:21:05.752Z,20.18
2022-10-19T07:22:05.718Z,20.16
2022-10-19T07:23:05.711Z,20.18
2022-10-19T07:24:05.724Z,20.18
2022-10-19T07:25:05.687Z,20.18
2022-10-19T07:26:05.675Z,20.18
2022-10-19T07:27:05.662Z,20.19
2022-10-19T07:28:05.650Z,20.16
2022-10-19T07:29:05.679Z,20.19
2022-10-19T07:30:05.651Z,20.19
2022-10-19T07:31:05.620Z,20.21
2022-10-19T07:32:05.608Z,20.19
2022-10-19T07:33:05.649Z,20.19
2022-10-19T07:34:05.585Z,20.19
2022-10-19T07:35:05.607Z,20.19
2022-10-19T07:36:05.565Z,20.19
2022-10-19T07:37:05.557Z,20.19
2022-10-19T07:38:05.542Z,20.19
2022-10-19T07:39:05.532Z,20.19
2022-10-19T07:40:05.545Z,20.18
2022-10-19T07:41:05.512Z,20.19
2022-10-19T07:42:05.499Z,20.19
2022-10-19T07:43:05.494Z,20.19
2022-10-19T07:44:05.481Z,20.19
2022-10-19T07:45:05.491Z,20.19
2022-10-19T07:46:05.479Z,20.21
2022-10-19T07:47:05.447Z,20.19
2022-10-19T07:48:05.433Z,20.18
2022-10-19T07:49:05.425Z,20.19
2022-10-19T07:50:05.453Z,20.19
2022-10-19T07:51:05.401Z,20.18
2022-10-19T07:52:05.391Z,20.18
2022-10-19T07:53:05.420Z,20.21
2022-10-19T07:54:05.368Z,20.18
2022-10-19T07:55:05.364Z,20.19
2022-10-19T07:56:05.370Z,20.19
2022-10-19T07:57:05.337Z,20.18
2022-10-19T07:58:05.324Z,20.18
2022-10-19T07:59:05.316Z,20.18
2022-10-19T08:00:05.304Z,20.19
2022-10-19T08:01:05.322Z,20.19
2022-10-19T08:02:05.392Z,20.18
2022-10-19T08:03:43.750Z,20.19
2022-10-19T08:05:09.091Z,20.18
2022-10-19T08:06:06.261Z,20.19
2022-10-19T08:07:05.231Z,20.18
2022-10-19T08:08:05.224Z,20.19
2022-10-19T08:09:05.346Z,20.19
2022-10-19T08:10:05.214Z,20.19
2022-10-19T08:11:05.357Z,20.19
2022-10-19T08:12:05.790Z,20.21
2022-10-19T08:13:05.178Z,20.21
2022-10-19T08:14:05.162Z,20.19
2022-10-19T08:15:05.144Z,20.21
2022-10-19T08:16:05.130Z,20.21
2022-10-19T08:17:05.167Z,20.21
2022-10-19T08:18:05.130Z,20.21
2022-10-19T08:19:05.098Z,20.21
2022-10-19T08:20:05.085Z,20.22
2022-10-19T08:21:05.079Z,20.21
2022-10-19T08:22:05.065Z,20.21
2022-10-19T08:23:05.079Z,20.22
2022-10-19T08:24:05.042Z,20.22
2022-10-19T08:25:05.032Z,20.24
2022-10-19T08:26:05.025Z,20.24
2022-10-19T08:27:05.015Z,20.24
2022-10-19T08:28:05.021Z,20.25
2022-10-19T08:29:04.992Z,20.26
2022-10-19T08:30:04.979Z,20.24
2022-10-19T08:31:04.970Z,20.26
2022-10-19T08:32:04.959Z,20.26
2022-10-19T08:33:04.970Z,20.28
2022-10-19T08:34:04.958Z,20.28
2022-10-19T08:35:08.516Z,20.26
2022-10-19T08:36:05.910Z,20.26
2022-10-19T08:37:14.614Z,20.26
2022-10-19T08:38:05.919Z,20.28
2022-10-19T08:39:04.880Z,20.26
2022-10-19T08:40:04.892Z,20.26
2022-10-19T08:41:04.858Z,20.26
2022-10-19T08:42:04.848Z,20.25
2022-10-19T08:43:04.940Z,20.25
2022-10-19T08:44:07.644Z,20.26
2022-10-19T08:45:05.817Z,20.26
2022-10-19T08:46:04.806Z,20.25
2022-10-19T08:47:06.125Z,20.25
2022-10-19T08:48:04.784Z,20.25
2022-10-19T08:49:04.798Z,20.24
2022-10-19T08:50:04.785Z,20.26
2022-10-19T08:51:04.754Z,20.24
2022-10-19T08:52:04.740Z,20.25
2022-10-19T08:53:04.728Z,20.25
2022-10-19T08:54:04.747Z,20.24
2022-10-19T08:55:04.713Z,20.24
2022-10-19T08:56:04.909Z,20.24
2022-10-19T08:57:04.692Z,20.25
2022-10-19T08:58:04.679Z,20.25
2022-10-19T08:59:04.693Z,20.25
2022-10-19T09:00:04.655Z,20.25
2022-10-19T09:01:04.650Z,20.25
2022-10-19T09:02:04.635Z,20.25
2022-10-19T09:03:04.622Z,20.26
2022-10-19T09:04:04.655Z,20.26
2022-10-19T09:05:04.600Z,20.26
2022-10-19T09:06:04.629Z,20.26
2022-10-19T09:07:04.579Z,20.25
2022-10-19T09:08:04.568Z,20.28
2022-10-19T09:09:04.609Z,20.26
2022-10-19T09:10:04.570Z,20.26
2022-10-19T09:11:04.538Z,20.26
2022-10-19T09:12:04.524Z,20.28
2022-10-19T09:13:04.515Z,20.28
2022-10-19T09:14:05.682Z,20.28
2022-10-19T09:15:04.517Z,20.29
2022-10-19T09:16:04.482Z,20.28
2022-10-19T09:17:04.480Z,20.29
2022-10-19T09:18:04.458Z,20.29
2022-10-19T09:19:04.449Z,20.29
2022-10-19T09:20:04.532Z,20.29
2022-10-19T09:21:04.427Z,20.31
2022-10-19T09:22:04.443Z,20.29
2022-10-19T09:23:04.406Z,20.31
2022-10-19T09:24:04.391Z,20.31
2022-10-19T09:25:04.382Z,20.31
2022-10-19T09:26:04.394Z,20.31
2022-10-19T09:27:04.360Z,20.32
2022-10-19T09:28:04.351Z,20.32
2022-10-19T09:29:04.343Z,20.31
2022-10-19T09:30:04.329Z,20.32
2022-10-19T09:31:04.342Z,20.32
2022-10-19T09:32:04.305Z,20.32
2022-10-19T09:33:04.297Z,20.32
2022-10-19T09:34:04.288Z,20.32
2022-10-19T09:35:04.274Z,20.32
2022-10-19T09:36:04.299Z,20.32
2022-10-19T09:37:04.318Z,20.34
2022-10-19T09:38:04.265Z,20.34
2022-10-19T09:39:04.236Z,20.32
2022-10-19T09:40:04.232Z,20.36
2022-10-19T09:41:04.214Z,20.34
2022-10-19T09:42:04.221Z,20.31
2022-10-19T09:43:04.186Z,20.34
2022-10-19T09:44:04.176Z,20.34
2022-10-19T09:45:04.167Z,20.32
2022-10-19T09:46:09.641Z,20.34
2022-10-19T09:47:07.109Z,20.32
2022-10-19T09:48:07.191Z,20.34
2022-10-19T09:49:05.123Z,20.32
2022-10-19T09:50:04.148Z,20.32
2022-10-19T09:51:04.107Z,20.36
2022-10-19T09:52:04.126Z,20.34
2022-10-19T09:53:04.081Z,20.36
2022-10-19T09:54:04.095Z,20.34
2022-10-19T09:55:04.058Z,20.32
2022-10-19T09:56:04.110Z,20.32
2022-10-19T09:57:04.053Z,20.34
2022-10-19T09:58:04.052Z,20.34
2022-10-19T09:59:04.013Z,20.34
2022-10-19T10:00:04.005Z,20.32
2022-10-19T10:01:03.993Z,20.34
2022-10-19T10:02:03.985Z,20.32
2022-10-19T10:03:03.990Z,20.34
2022-10-19T10:04:03.956Z,20.34
2022-10-19T10:05:03.949Z,20.34
2022-10-19T10:06:03.935Z,20.31
2022-10-19T10:07:03.969Z,20.32
2022-10-19T10:08:03.914Z,20.31
2022-10-19T10:09:03.981Z,20.32
2022-10-19T10:10:03.921Z,20.32
2022-10-19T10:11:03.883Z,20.31
2022-10-19T10:12:03.874Z,20.31
2022-10-19T10:13:03.862Z,20.31
2022-10-19T10:14:06.168Z,20.32
2022-10-19T10:15:04.836Z,20.31
2022-10-19T10:16:03.832Z,20.31
2022-10-19T10:17:03.892Z,20.31
2022-10-19T10:18:03.808Z,20.29
2022-10-19T10:19:03.818Z,20.29
2022-10-19T10:20:03.790Z,20.28
2022-10-19T10:21:05.902Z,20.31
2022-10-19T10:22:03.764Z,20.29
2022-10-19T10:23:03.750Z,20.31
2022-10-19T10:24:03.769Z,20.28
2022-10-19T10:25:03.730Z,20.29
2022-10-19T10:26:03.747Z,20.29
2022-10-19T10:27:03.820Z,20.29
2022-10-19T10:28:03.697Z,20.29
2022-10-19T10:29:03.726Z,20.29
2022-10-19T10:30:03.681Z,20.28
2022-10-19T10:31:03.667Z,20.28
2022-10-19T10:32:03.656Z,20.29
2022-10-19T10:33:13.231Z,20.29
2022-10-19T10:34:16.228Z,20.28
2022-10-19T10:35:04.618Z,20.29
2022-10-19T10:36:03.610Z,20.28
2022-10-19T10:37:03.643Z,20.28
2022-10-19T10:38:03.587Z,20.29
2022-10-19T10:39:03.584Z,20.29
2022-10-19T10:40:04.818Z,20.28
2022-10-19T10:41:03.554Z,20.29
2022-10-19T10:42:03.563Z,20.28
2022-10-19T10:43:03.569Z,20.28
2022-10-19T10:44:04.827Z,20.26
2022-10-19T10:45:03.536Z,20.29
2022-10-19T10:46:03.501Z,20.28
2022-10-19T10:47:03.607Z,20.28
2022-10-19T10:48:03.544Z,20.28
2022-10-19T10:49:03.465Z,20.28
2022-10-19T10:50:03.482Z,20.26
2022-10-19T10:51:03.450Z,20.26
2022-10-19T10:52:03.442Z,20.28
2022-10-19T10:53:03.473Z,20.28
2022-10-19T10:54:03.413Z,20.28
2022-10-19T10:55:03.422Z,20.28
2022-10-19T10:56:03.397Z,20.28
2022-10-19T10:57:06.363Z,20.28
2022-10-19T10:58:03.391Z,20.26
2022-10-19T10:59:03.369Z,20.28
2022-10-19T11:00:03.385Z,20.26
2022-10-19T11:01:06.607Z,20.28
2022-10-19T11:02:03.371Z,20.26
2022-10-19T11:03:03.313Z,20.25
2022-10-19T11:04:03.302Z,20.26
2022-10-19T11:05:03.291Z,20.26
2022-10-19T11:06:03.312Z,20.26
2022-10-19T11:07:03.322Z,20.26
2022-10-19T11:08:03.260Z,20.26
2022-10-19T11:09:03.307Z,20.28
2022-10-19T11:10:03.237Z,20.25
2022-10-19T11:11:03.250Z,20.26
2022-10-19T11:12:03.221Z,20.28
2022-10-19T11:13:03.202Z,20.28
2022-10-19T11:14:03.214Z,20.28
2022-10-19T11:15:03.180Z,20.28
2022-10-19T11:16:03.194Z,20.28
2022-10-19T11:17:03.198Z,20.28
2022-10-19T11:18:03.153Z,20.28
2022-10-19T11:19:03.197Z,20.29
2022-10-19T11:20:03.128Z,20.28
2022-10-19T11:21:03.142Z,20.28
2022-10-19T11:22:03.106Z,20.29
2022-10-19T11:23:03.092Z,20.29
2022-10-19T11:24:03.083Z,20.31
2022-10-19T11:25:03.135Z,20.29
2022-10-19T11:26:03.087Z,20.29
2022-10-19T11:27:03.089Z,20.28
2022-10-19T11:28:03.036Z,20.29
2022-10-19T11:29:03.025Z,20.29
2022-10-19T11:30:03.044Z,20.29
2022-10-19T11:31:03.031Z,20.28
2022-10-19T11:32:02.995Z,20.28
2022-10-19T11:33:02.981Z,20.29
2022-10-19T11:34:02.970Z,20.28
2022-10-19T11:35:02.959Z,20.29
2022-10-19T11:36:02.985Z,20.28
2022-10-19T11:37:03.055Z,20.28
2022-10-19T11:38:21.165Z,20.28
2022-10-19T11:39:03.914Z,20.28
2022-10-19T11:40:02.909Z,20.28
2022-10-19T11:41:17.359Z,20.28
2022-10-19T11:42:03.881Z,20.26
2022-10-19T11:43:02.898Z,20.28
2022-10-19T11:44:02.862Z,20.26
2022-10-19T11:45:02.848Z,20.26
2022-10-19T11:46:02.863Z,20.28
2022-10-19T11:47:02.870Z,20.26
2022-10-19T11:48:02.815Z,20.25
2022-10-19T11:49:02.804Z,20.28
2022-10-19T11:50:02.906Z,20.26
2022-10-19T11:51:17.428Z,20.26
2022-10-19T11:52:03.795Z,20.28
2022-10-19T11:53:02.761Z,20.26
2022-10-19T11:54:02.753Z,20.28
2022-10-19T11:55:02.751Z,20.25
2022-10-19T11:56:02.732Z,20.25
2022-10-19T11:57:05.521Z,20.25
2022-10-19T11:58:02.711Z,20.25
2022-10-19T11:59:02.761Z,20.25
2022-10-19T12:00:13.997Z,20.25
2022-10-19T12:01:03.697Z,20.25
2022-10-19T12:02:02.835Z,20.24
2022-10-19T12:03:03.911Z,20.25
2022-10-19T12:04:02.643Z,20.25
2022-10-19T12:05:02.634Z,20.25
2022-10-19T12:06:02.625Z,20.26
2022-10-19T12:07:02.651Z,20.26
2022-10-19T12:08:02.600Z,20.25
2022-10-19T12:09:02.661Z,20.25
2022-10-19T12:10:02.579Z,20.25
2022-10-19T12:11:02.564Z,20.25
2022-10-19T12:12:02.555Z,20.25
2022-10-19T12:13:02.568Z,20.26
2022-10-19T12:14:02.532Z,20.25
2022-10-19T12:15:02.521Z,20.26
2022-10-19T12:16:02.509Z,20.26
2022-10-19T12:17:02.635Z,20.26
2022-10-19T12:18:02.535Z,20.25
2022-10-19T12:19:02.482Z,20.26
2022-10-19T12:20:02.503Z,20.25
2022-10-19T12:21:02.456Z,20.25
2022-10-19T12:22:02.445Z,20.26
2022-10-19T12:23:02.459Z,20.26
2022-10-19T12:24:02.427Z,20.26
2022-10-19T12:25:02.421Z,20.26
2022-10-19T12:26:02.410Z,20.25
2022-10-19T12:27:02.393Z,20.26
2022-10-19T12:28:02.406Z,20.25
2022-10-19T12:29:02.374Z,20.25
2022-10-19T12:30:02.359Z,20.26
2022-10-19T12:31:02.356Z,20.25
2022-10-19T12:32:02.336Z,20.25
2022-10-19T12:33:02.351Z,20.25
2022-10-19T12:34:02.337Z,20.25
2022-10-19T12:35:02.305Z,20.25
2022-10-19T12:36:02.305Z,20.25
2022-10-19T12:37:02.289Z,20.26
2022-10-19T12:38:02.304Z,20.26
2022-10-19T12:39:02.262Z,20.25
2022-10-19T12:40:02.250Z,20.25
2022-10-19T12:41:02.239Z,20.25
2022-10-19T12:42:02.227Z,20.26
2022-10-19T12:43:02.243Z,20.22
2022-10-19T12:44:02.211Z,20.21
2022-10-19T12:45:02.198Z,20.21
2022-10-19T12:46:02.184Z,20.19
2022-10-19T12:47:02.222Z,20.19
2022-10-19T12:48:02.203Z,20.18
2022-10-19T12:49:02.155Z,20.18
2022-10-19T12:50:02.173Z,20.16
2022-10-19T12:51:02.136Z,20.16
2022-10-19T12:52:02.117Z,20.16
2022-10-19T12:53:02.113Z,20.18
2022-10-19T12:54:02.120Z,20.16
2022-10-19T12:55:02.085Z,20.14
2022-10-19T12:56:02.073Z,20.14